Time;durP1;ratioP1;P1;durP2;ratioP2;P2;SDS_P1;SDS_P2;PMS_P1;PMS_P2;Temp;Humidity;BMP_temperature;BMP_pressure;BME280_temperature;BME280_humidity;BME280_pressure;Samples;Min_cycle;Max_cycle;Signal;HPM_P1;HPM_P2
2023/08/12 00:00:20;;;;;;;15.10;8.13;;;;;;;;;;5047861;28;20079;-74
2023/08/12 00:02:46;;;;;;;20.20;10.30;;;;;;;;;;5048821;28;20041;-74
2023/08/12 00:05:13;;;;;;;24.05;10.55;;;;;;;;;;5039460;28;20194;-74
2023/08/12 00:07:42;;;;;;;19.67;9.07;;;;;;;;;;5040686;28;20046;-74
2023/08/12 00:10:09;;;;;;;20.55;9.90;;;;;;;;;;5048340;28;20075;-74
2023/08/12 00:12:35;;;;;;;19.65;10.95;;;;;;;;;;5051620;28;20493;-74
2023/08/12 00:15:02;;;;;;;21.52;11.35;;;;;;;;;;5043839;28;20060;-75
2023/08/12 00:17:28;;;;;;;23.48;10.25;;;;;;;;;;5034400;28;20045;-73
2023/08/12 00:19:55;;;;;;;25.65;11.73;;;;;;;;;;5051487;28;20462;-74
2023/08/12 00:22:21;;;;;;;23.23;11.27;;;;;;;;;;5050955;28;20045;-74
2023/08/12 00:24:47;;;;;;;;;;;;;;;;;;5051829;28;20047;-74
2023/08/12 00:27:13;;;;;;;30.48;13.63;;;;;;;;;;5058273;28;20003;-74
2023/08/12 00:29:39;;;;;;;;;;;;;;;;;;5030557;28;20049;-74
2023/08/12 00:32:05;;;;;;;26.23;12.60;;;;;;;;;;5048038;28;19921;-74
2023/08/12 00:34:31;;;;;;;27.63;13.05;;;;;;;;;;5039521;28;20071;-74
2023/08/12 00:36:57;;;;;;;;;;;;;;;;;;5051117;28;20490;-74
2023/08/12 00:39:23;;;;;;;28.73;12.70;;;;;;;;;;5064305;28;19979;-74
2023/08/12 00:41:49;;;;;;;27.75;13.80;;;;;;;;;;5030680;28;20056;-74
2023/08/12 00:44:15;;;;;;;26.65;13.30;;;;;;;;;;5031604;28;20144;-74
2023/08/12 00:46:43;;;;;;;25.15;13.05;;;;;;;;;;5034909;28;20044;-74
2023/08/12 00:49:09;;;;;;;23.08;12.38;;;;;;;;;;5034175;28;20044;-74
2023/08/12 00:51:36;;;;;;;30.73;12.85;;;;;;;;;;5051104;28;20076;-74
2023/08/12 00:54:06;;;;;;;32.13;14.35;;;;;;;;;;5048668;28;20126;-75
2023/08/12 00:56:32;;;;;;;24.27;11.75;;;;;;;;;;5050412;28;20132;-74
2023/08/12 00:58:58;;;;;;;15.98;7.60;;;;;;;;;;5049391;28;20044;-75
2023/08/12 01:01:24;;;;;;;16.10;8.30;;;;;;;;;;5030974;28;20132;-74
2023/08/12 01:03:50;;;;;;;23.80;11.68;;;;;;;;;;5050361;28;20119;-75
2023/08/12 01:06:17;;;;;;;27.05;11.73;;;;;;;;;;5030865;28;20042;-74
2023/08/12 01:08:42;;;;;;;;;;;;;;;;;;5033656;28;20045;-74
2023/08/12 01:11:09;;;;;;;27.80;12.95;;;;;;;;;;5067217;28;19927;-75
2023/08/12 01:13:34;;;;;;;;;;;;;;;;;;5041872;28;20072;-75
2023/08/12 01:16:03;;;;;;;20.88;11.23;;;;;;;;;;5037302;28;19963;-74
2023/08/12 01:18:29;;;;;;;13.88;6.45;;;;;;;;;;5034251;28;20049;-74
2023/08/12 01:20:56;;;;;;;25.23;13.32;;;;;;;;;;5018032;28;20057;-74
2023/08/12 01:23:22;;;;;;;28.05;12.73;;;;;;;;;;5034361;28;20087;-74
2023/08/12 01:25:48;;;;;;;22.88;9.27;;;;;;;;;;5053908;28;20044;-74
2023/08/12 01:28:14;;;;;;;28.15;13.10;;;;;;;;;;5052549;28;20040;-75
2023/08/12 01:30:40;;;;;;;;;;;;;;;;;;5036325;28;20620;-74
2023/08/12 01:33:15;;;;;;;22.15;11.48;;;;;;;;;;5052720;28;19950;-76
2023/08/12 01:35:47;;;;;;;26.77;13.10;;;;;;;;;;5052740;28;20054;-75
2023/08/12 01:38:14;;;;;;;23.85;12.82;;;;;;;;;;5050853;28;20132;-75
2023/08/12 01:40:40;;;;;;;26.60;13.23;;;;;;;;;;5070513;28;20050;-75
2023/08/12 01:43:08;;;;;;;27.88;13.38;;;;;;;;;;5036215;28;20052;-76
2023/08/12 01:45:34;;;;;;;26.30;13.50;;;;;;;;;;5043845;28;20131;-75
2023/08/12 01:48:00;;;;;;;27.65;12.63;;;;;;;;;;5053829;28;20048;-75
2023/08/12 01:50:26;;;;;;;;;;;;;;;;;;5053781;28;20044;-75
2023/08/12 01:52:52;;;;;;;25.38;12.32;;;;;;;;;;5053852;28;19927;-75
2023/08/12 01:55:18;;;;;;;24.70;13.10;;;;;;;;;;5052618;28;20045;-74
2023/08/12 01:57:45;;;;;;;;;;;;;;;;;;5035854;28;20048;-75
2023/08/12 02:00:12;;;;;;;24.65;12.15;;;;;;;;;;5043561;28;19920;-75
2023/08/12 02:02:38;;;;;;;25.45;13.00;;;;;;;;;;5048698;28;20037;-75
2023/08/12 02:05:04;;;;;;;;;;;;;;;;;;5050845;28;20106;-75
2023/08/12 02:07:30;;;;;;;26.63;12.75;;;;;;;;;;5040925;28;20174;-74
2023/08/12 02:09:56;;;;;;;19.95;12.27;;;;;;;;;;5037218;28;20131;-74
2023/08/12 02:12:22;;;;;;;25.23;12.02;;;;;;;;;;5036787;28;20089;-75
2023/08/12 02:14:48;;;;;;;;;;;;;;;;;;5036916;28;20041;-74
2023/08/12 02:17:14;;;;;;;25.05;11.88;;;;;;;;;;5070653;28;19928;-75
2023/08/12 02:19:40;;;;;;;;;;;;;;;;;;5037768;28;20052;-75
2023/08/12 02:22:06;;;;;;;24.08;11.43;;;;;;;;;;5085596;28;19920;-75
2023/08/12 02:24:32;;;;;;;;;;;;;;;;;;5042309;28;20126;-75
2023/08/12 02:26:58;;;;;;;21.27;12.35;;;;;;;;;;5070319;28;20564;-74
2023/08/12 02:29:24;;;;;;;;;;;;;;;;;;5036463;28;20140;-75
2023/08/12 02:31:50;;;;;;;24.30;13.00;;;;;;;;;;5070717;28;20011;-75
2023/08/12 02:34:16;;;;;;;18.35;9.65;;;;;;;;;;5054508;28;20044;-75
2023/08/12 02:36:42;;;;;;;;;;;;;;;;;;5058923;28;20079;-75
2023/08/12 02:39:08;;;;;;;22.20;12.02;;;;;;;;;;5055598;28;19971;-75
2023/08/12 02:41:34;;;;;;;28.65;14.93;;;;;;;;;;5073055;28;20152;-75
2023/08/12 02:44:00;;;;;;;;;;;;;;;;;;5073020;28;20094;-76
2023/08/12 02:46:26;;;;;;;26.85;14.02;;;;;;;;;;5036457;28;19925;-74
2023/08/12 02:48:52;;;;;;;25.92;13.57;;;;;;;;;;5053010;28;20041;-75
2023/08/12 02:51:18;;;;;;;;;;;;;;;;;;5056660;28;20044;-75
2023/08/12 02:53:44;;;;;;;31.15;14.50;;;;;;;;;;5087689;28;19969;-75
2023/08/12 02:56:10;;;;;;;24.83;13.57;;;;;;;;;;5056712;28;20075;-75
2023/08/12 02:58:37;;;;;;;;;;;;;;;;;;5039250;28;20119;-75
2023/08/12 03:01:04;;;;;;;;;;;;;;;;;;5054668;28;19924;-75
2023/08/12 03:03:30;;;;;;;27.20;14.13;;;;;;;;;;5042919;28;19927;-75
2023/08/12 03:05:56;;;;;;;26.83;14.10;;;;;;;;;;5041977;28;20153;-75
2023/08/12 03:08:22;;;;;;;;;;;;;;;;;;5042624;28;20088;-75
2023/08/12 03:10:48;;;;;;;26.42;14.00;;;;;;;;;;5039322;28;19921;-74
2023/08/12 03:13:14;;;;;;;26.52;13.75;;;;;;;;;;5038935;28;20064;-75
2023/08/12 03:15:40;;;;;;;24.60;13.75;;;;;;;;;;5043704;28;20045;-74
2023/08/12 03:18:06;;;;;;;23.73;13.63;;;;;;;;;;5035356;28;20131;-75
2023/08/12 03:20:32;;;;;;;24.40;14.00;;;;;;;;;;5036626;28;20091;-75
2023/08/12 03:23:00;;;;;;;22.65;13.00;;;;;;;;;;5069693;28;20070;-74
2023/08/12 03:25:26;;;;;;;25.88;13.73;;;;;;;;;;5039108;28;20097;-74
2023/08/12 03:27:52;;;;;;;27.70;13.90;;;;;;;;;;5035537;28;20052;-75
2023/08/12 03:30:18;;;;;;;;;;;;;;;;;;5036142;28;20055;-75
2023/08/12 03:32:44;;;;;;;23.75;13.40;;;;;;;;;;5072061;28;19924;-74
2023/08/12 03:35:10;;;;;;;;;;;;;;;;;;5056594;28;20044;-75
2023/08/12 03:37:36;;;;;;;25.70;14.25;;;;;;;;;;5070981;28;19932;-74
2023/08/12 03:40:02;;;;;;;;;;;;;;;;;;5089497;28;20123;-74
2023/08/12 03:42:28;;;;;;;26.90;14.57;;;;;;;;;;5050314;28;20034;-75
2023/08/12 03:44:54;;;;;;;28.33;14.73;;;;;;;;;;5035215;28;20048;-74
2023/08/12 03:47:23;;;;;;;;;;;;;;;;;;5040049;28;20048;-74
2023/08/12 03:49:49;;;;;;;26.33;13.95;;;;;;;;;;5054078;28;20029;-74
2023/08/12 03:52:15;;;;;;;26.65;14.52;;;;;;;;;;5030821;28;20063;-74
2023/08/12 03:54:41;;;;;;;;;;;;;;;;;;5049874;28;20394;-74
2023/08/12 03:57:07;;;;;;;30.73;14.50;;;;;;;;;;5068725;28;19927;-74
2023/08/12 03:59:33;;;;;;;;;;;;;;;;;;5047355;28;20286;-74
2023/08/12 04:01:59;;;;;;;19.23;10.57;;;;;;;;;;5055483;28;19920;-74
2023/08/12 04:04:25;;;;;;;;;;;;;;;;;;5055000;28;20625;-76
2023/08/12 04:06:51;;;;;;;20.02;11.73;;;;;;;;;;5055539;28;19920;-75
2023/08/12 04:09:18;;;;;;;26.38;14.63;;;;;;;;;;5054999;28;20053;-74
2023/08/12 04:11:45;;;;;;;25.02;13.50;;;;;;;;;;5054084;28;20515;-74
2023/08/12 04:14:11;;;;;;;28.08;14.88;;;;;;;;;;5036975;28;20051;-74
2023/08/12 04:16:37;;;;;;;20.60;10.80;;;;;;;;;;5049283;28;20071;-74
2023/08/12 04:19:03;;;;;;;;;;;;;;;;;;5035906;28;20076;-74
2023/08/12 04:21:29;;;;;;;33.15;14.73;;;;;;;;;;5069511;28;20365;-75
2023/08/12 04:23:55;;;;;;;15.65;7.95;;;;;;;;;;5054625;28;20044;-74
2023/08/12 04:26:21;;;;;;;;;;;;;;;;;;5055758;28;20102;-74
2023/08/12 04:28:47;;;;;;;30.08;15.45;;;;;;;;;;5053558;28;19928;-74
2023/08/12 04:31:13;;;;;;;;;;;;;;;;;;5054731;28;20512;-75
2023/08/12 04:33:39;;;;;;;29.08;15.15;;;;;;;;;;5054312;28;19959;-74
2023/08/12 04:36:05;;;;;;;;;;;;;;;;;;5055542;28;20125;-74
2023/08/12 04:38:31;;;;;;;10.80;5.47;;;;;;;;;;5051818;28;19924;-76
2023/08/12 04:40:57;;;;;;;27.42;15.40;;;;;;;;;;5054623;28;20123;-74
2023/08/12 04:43:23;;;;;;;24.60;14.13;;;;;;;;;;5037434;28;20507;-74
2023/08/12 04:45:49;;;;;;;29.88;16.00;;;;;;;;;;5039943;28;20697;-74
2023/08/12 04:48:16;;;;;;;29.67;14.93;;;;;;;;;;5054417;28;20036;-74
2023/08/12 04:50:42;;;;;;;26.92;13.23;;;;;;;;;;5054300;28;20075;-74
2023/08/12 04:53:09;;;;;;;24.10;14.10;;;;;;;;;;5038445;28;20045;-75
2023/08/12 04:55:35;;;;;;;29.80;16.52;;;;;;;;;;5017810;28;20055;-75
2023/08/12 04:58:05;;;;;;;27.60;14.55;;;;;;;;;;5033675;28;20059;-75
2023/08/12 05:00:31;;;;;;;26.88;15.05;;;;;;;;;;5033677;28;20099;-74
2023/08/12 05:02:57;;;;;;;18.00;10.10;;;;;;;;;;5041049;28;20041;-74
2023/08/12 05:05:23;;;;;;;;;;;;;;;;;;5070834;28;20482;-74
2023/08/12 05:07:49;;;;;;;22.17;12.38;;;;;;;;;;5067950;28;19970;-74
2023/08/12 05:10:15;;;;;;;;;;;;;;;;;;5034222;28;20075;-74
2023/08/12 05:12:41;;;;;;;27.65;15.30;;;;;;;;;;5066858;28;19976;-74
2023/08/12 05:15:07;;;;;;;;;;;;;;;;;;5033865;28;20115;-74
2023/08/12 05:17:33;;;;;;;31.63;17.02;;;;;;;;;;5067749;28;19931;-75
2023/08/12 05:19:59;;;;;;;;;;;;;;;;;;5048647;28;20095;-75
2023/08/12 05:22:25;;;;;;;30.63;17.83;;;;;;;;;;5053913;28;19971;-74
2023/08/12 05:24:51;;;;;;;24.10;12.98;;;;;;;;;;5053381;28;20070;-74
2023/08/12 05:27:17;;;;;;;;;;;;;;;;;;5050960;28;20039;-74
2023/08/12 05:29:43;;;;;;;29.50;15.93;;;;;;;;;;5032526;28;19987;-74
2023/08/12 05:32:09;;;;;;;30.30;17.60;;;;;;;;;;5033977;28;20511;-74
2023/08/12 05:34:35;;;;;;;;;;;;;;;;;;5017822;28;20528;-75
2023/08/12 05:37:01;;;;;;;40.63;18.77;;;;;;;;;;5040604;28;19967;-74
2023/08/12 05:39:27;;;;;;;33.40;16.80;;;;;;;;;;5033690;28;20502;-74
2023/08/12 05:41:53;;;;;;;;;;;;;;;;;;5034283;28;20585;-74
2023/08/12 05:44:19;;;;;;;20.50;11.18;;;;;;;;;;5070539;28;19932;-74
2023/08/12 05:46:45;;;;;;;;;;;;;;;;;;5038512;28;21111;-75
2023/08/12 05:49:11;;;;;;;;;;;;;;;;;;5044070;28;19969;-74
2023/08/12 05:51:38;;;;;;;;;;;;;;;;;;5047331;28;19920;-76
2023/08/12 05:54:04;;;;;;;;;;;;;;;;;;5071256;28;19924;-74
2023/08/12 05:56:30;;;;;;;;;;;;;;;;;;5074814;28;20285;-74
2023/08/12 05:58:56;;;;;;;;;;;;;;;;;;5056475;28;19975;-75
2023/08/12 06:01:22;;;;;;;;;;;;;;;;;;5057747;28;19934;-75
2023/08/12 06:03:48;;;;;;;;;;;;;;;;;;5075165;28;19920;-75
2023/08/12 06:06:14;;;;;;;;;;;;;;;;;;5041142;28;19931;-75
2023/08/12 06:08:40;;;;;;;;;;;;;;;;;;5088233;28;20500;-75
2023/08/12 06:11:06;;;;;;;;;;;;;;;;;;5091468;28;19920;-75
2023/08/12 06:13:32;;;;;;;;;;;;;;;;;;5045501;28;19981;-75
2023/08/12 06:15:58;;;;;;;;;;;;;;;;;;5070512;28;19921;-74
2023/08/12 06:18:24;;;;;;;;;;;;;;;;;;5083587;28;19928;-75
2023/08/12 06:20:50;;;;;;;;;;;;;;;;;;5040297;28;20357;-75
2023/08/12 06:23:16;;;;;;;;;;;;;;;;;;5056540;28;20292;-69
2023/08/12 06:25:42;;;;;;;;;;;;;;;;;;5074947;28;19921;-75
2023/08/12 06:28:09;;;;;;;;;;;;;;;;;;5056983;28;19934;-68
2023/08/12 06:30:35;;;;;;;;;;;;;;;;;;5055787;28;20395;-76
2023/08/12 06:33:01;;;;;;;;;;;;;;;;;;5051868;28;20019;-76
2023/08/12 06:35:27;;;;;;;;;;;;;;;;;;5074375;28;19978;-72
2023/08/12 06:37:53;;;;;;;;;;;;;;;;;;5040358;28;19924;-72
2023/08/12 06:40:19;;;;;;;;;;;;;;;;;;5056800;28;19920;-72
2023/08/12 06:42:45;;;;;;;;;;;;;;;;;;5072612;28;20365;-76
2023/08/12 06:45:11;;;;;;;;;;;;;;;;;;5055444;28;20353;-73
2023/08/12 06:47:37;;;;;;;;;;;;;;;;;;5073874;28;20308;-75
2023/08/12 06:50:03;;;;;;;;;;;;;;;;;;5056299;28;19920;-74
2023/08/12 06:52:29;;;;;;;;;;;;;;;;;;5056212;28;19927;-74
2023/08/12 06:54:55;;;;;;;;;;;;;;;;;;5046594;28;19920;-73
2023/08/12 06:57:21;;;;;;;;;;;;;;;;;;5070280;28;19972;-74
2023/08/12 06:59:47;;;;;;;;;;;;;;;;;;5069363;28;19920;-75
2023/08/12 07:02:13;;;;;;;;;;;;;;;;;;5083047;28;19968;-73
2023/08/12 07:04:39;;;;;;;;;;;;;;;;;;5070620;28;19978;-74
2023/08/12 07:07:05;;;;;;;;;;;;;;;;;;5069953;28;19960;-73
2023/08/12 07:09:31;;;;;;;;;;;;;;;;;;5054414;28;19920;-74
2023/08/12 07:11:57;;;;;;;;;;;;;;;;;;5069422;28;19925;-73
2023/08/12 07:14:22;;;;;;;;;;;;;;;;;;5088827;28;19927;-74
2023/08/12 07:16:48;;;;;;;;;;;;;;;;;;5055997;28;19921;-76
2023/08/12 07:19:15;;;;;;;;;;;;;;;;;;5048540;28;19924;-73
2023/08/12 07:21:40;;;;;;;;;;;;;;;;;;5056362;28;19926;-71
2023/08/12 07:24:06;;;;;;;;;;;;;;;;;;5073629;28;19920;-71
2023/08/12 07:26:32;;;;;;;;;;;;;;;;;;5074375;28;19966;-71
2023/08/12 07:28:58;;;;;;;;;;;;;;;;;;5054641;28;19920;-72
2023/08/12 07:31:24;;;;;;;;;;;;;;;;;;5073921;28;19966;-70
2023/08/12 07:33:50;;;;;;;;;;;;;;;;;;5072362;28;19924;-78
2023/08/12 07:36:16;;;;;;;;;;;;;;;;;;5053420;28;20042;-71
2023/08/12 07:38:42;;;;;;;;;;;;;;;;;;5072981;28;19974;-74
2023/08/12 07:41:08;;;;;;;;;;;;;;;;;;5054329;28;20011;-74
2023/08/12 07:43:34;;;;;;;;;;;;;;;;;;5053759;28;19981;-74
2023/08/12 07:46:00;;;;;;;;;;;;;;;;;;5053761;28;20408;-74
2023/08/12 07:48:26;;;;;;;;;;;;;;;;;;5054336;28;19974;-75
2023/08/12 07:50:52;;;;;;;;;;;;;;;;;;5037961;28;19920;-78
2023/08/12 07:53:18;;;;;;;;;;;;;;;;;;5053949;28;19966;-74
2023/08/12 07:55:44;;;;;;;;;;;;;;;;;;5054231;28;20425;-75
2023/08/12 07:58:10;;;;;;;;;;;;;;;;;;5052282;28;19924;-74
2023/08/12 08:00:36;;;;;;;;;;;;;;;;;;5054132;28;19924;-75
2023/08/12 08:03:02;;;;;;;;;;;;;;;;;;5054236;28;20131;-74
2023/08/12 08:05:28;;;;;;;;;;;;;;;;;;5054139;28;19924;-75
2023/08/12 08:07:53;;;;;;;;;;;;;;;;;;5041760;28;20633;-77
2023/08/12 08:10:19;;;;;;;;;;;;;;;;;;5068117;28;19931;-75
2023/08/12 08:12:45;;;;;;;;;;;;;;;;;;5083663;28;19928;-76
2023/08/12 08:15:11;;;;;;;;;;;;;;;;;;5053823;28;19925;-77
2023/08/12 08:17:37;;;;;;;;;;;;;;;;;;5054255;28;19999;-76
2023/08/12 08:20:05;;;;;;;;;;;;;;;;;;5054538;28;19925;-76
2023/08/12 08:22:31;;;;;;;;;;;;;;;;;;5054157;28;19986;-76
2023/08/12 08:24:57;;;;;;;;;;;;;;;;;;5055181;28;19920;-78
2023/08/12 08:27:23;;;;;;;;;;;;;;;;;;5044082;28;19928;-77
2023/08/12 08:29:49;;;;;;;;;;;;;;;;;;5066678;28;19924;-76
2023/08/12 08:32:15;;;;;;;;;;;;;;;;;;5068387;28;19921;-76
2023/08/12 08:34:41;;;;;;;;;;;;;;;;;;5068663;28;19921;-76
2023/08/12 08:37:07;;;;;;;;;;;;;;;;;;5070870;28;19924;-76
2023/08/12 08:39:33;;;;;;;;;;;;;;;;;;5055197;28;19978;-76
2023/08/12 08:41:58;;;;;;;;;;;;;;;;;;5054444;28;19981;-76
2023/08/12 08:44:24;;;;;;;;;;;;;;;;;;5054506;28;19920;-76
2023/08/12 08:46:51;;;;;;;;;;;;;;;;;;5038298;28;19969;-76
2023/08/12 08:49:16;;;;;;;;;;;;;;;;;;5052940;28;20460;-76
2023/08/12 08:51:42;;;;;;;;;;;;;;;;;;5053851;28;19920;-74
2023/08/12 08:54:08;;;;;;;;;;;;;;;;;;5053296;28;20422;-74
2023/08/12 08:56:34;;;;;;;;;;;;;;;;;;5072371;28;20378;-78
2023/08/12 08:59:00;;;;;;;;;;;;;;;;;;5036906;28;19920;-77
2023/08/12 09:01:26;;;;;;;;;;;;;;;;;;5054526;28;19966;-75
2023/08/12 09:03:56;;;;;;;;;;;;;;;;;;5054203;28;19948;-75
2023/08/12 09:06:22;;;;;;;;;;;;;;;;;;5051332;28;19929;-75
2023/08/12 09:08:49;;;;;;;;;;;;;;;;;;5053964;28;19920;-76
2023/08/12 09:11:15;;;;;;;;;;;;;;;;;;5053947;28;20392;-77
2023/08/12 09:13:41;;;;;;;;;;;;;;;;;;5053496;28;19970;-75
2023/08/12 09:16:07;;;;;;;;;;;;;;;;;;5052489;28;19924;-77
2023/08/12 09:18:33;;;;;;;;;;;;;;;;;;5053980;28;20023;-77
2023/08/12 09:20:59;;;;;;;;;;;;;;;;;;5036973;28;19920;-76
2023/08/12 09:23:24;;;;;;;;;;;;;;;;;;5050270;28;19936;-76
2023/08/12 09:25:50;;;;;;;;;;;;;;;;;;5049767;28;19967;-76
2023/08/12 09:28:16;;;;;;;;;;;;;;;;;;5050520;28;19920;-76
2023/08/12 09:30:46;;;;;;;;;;;;;;;;;;5051971;28;19920;-76
2023/08/12 09:33:12;;;;;;;;;;;;;;;;;;5051896;28;20399;-77
2023/08/12 09:35:38;;;;;;;;;;;;;;;;;;5051183;28;19928;-76
2023/08/12 09:38:04;;;;;;;;;;;;;;;;;;5051574;28;19932;-77
2023/08/12 09:40:30;;;;;;;;;;;;;;;;;;5035518;28;19924;-76
2023/08/12 09:42:56;;;;;;;;;;;;;;;;;;5051003;28;19927;-76
2023/08/12 09:45:22;;;;;;;;;;;;;;;;;;5048690;28;19970;-77
2023/08/12 09:47:48;;;;;;;;;;;;;;;;;;5051026;28;20009;-76
2023/08/12 09:50:14;;;;;;;;;;;;;;;;;;5052181;28;19928;-76
2023/08/12 09:52:39;;;;;;;;;;;;;;;;;;5052706;28;20011;-76
2023/08/12 09:55:05;;;;;;;;;;;;;;;;;;5050356;28;20392;-77
2023/08/12 09:57:31;;;;;;;;;;;;;;;;;;5052234;28;19954;-76
2023/08/12 09:59:57;;;;;;;;;;;;;;;;;;5051585;28;19978;-76
2023/08/12 10:02:24;;;;;;;;;;;;;;;;;;5051712;28;20446;-75
2023/08/12 10:04:50;;;;;;;;;;;;;;;;;;5036184;28;20096;-76
2023/08/12 10:07:16;;;;;;;;;;;;;;;;;;5052765;28;19960;-76
2023/08/12 10:09:42;;;;;;;;;;;;;;;;;;5051914;28;19920;-76
2023/08/12 10:12:08;;;;;;;;;;;;;;;;;;5052474;28;20324;-76
2023/08/12 10:14:34;;;;;;;;;;;;;;;;;;5051788;28;19924;-76
2023/08/12 10:17:00;;;;;;;;;;;;;;;;;;5036698;28;19924;-76
2023/08/12 10:19:26;;;;;;;;;;;;;;;;;;5052493;28;19928;-76
2023/08/12 10:21:53;;;;;;;;;;;;;;;;;;5049240;28;19920;-77
2023/08/12 10:24:18;;;;;;;;;;;;;;;;;;5050401;28;20367;-76
2023/08/12 10:26:44;;;;;;;;;;;;;;;;;;5052862;28;19924;-76
2023/08/12 10:29:11;;;;;;;;;;;;;;;;;;5038053;28;19920;-76
2023/08/12 10:31:37;;;;;;;;;;;;;;;;;;5056701;28;20011;-76
2023/08/12 10:34:03;;;;;;;;;;;;;;;;;;5040860;28;20413;-76
2023/08/12 10:36:29;;;;;;;;;;;;;;;;;;5057342;28;19927;-76
2023/08/12 10:38:55;;;;;;;;;;;;;;;;;;5054558;28;20357;-76
2023/08/12 10:41:21;;;;;;;;;;;;;;;;;;5040448;28;19994;-77
2023/08/12 10:43:47;;;;;;;;;;;;;;;;;;5052931;28;19928;-76
2023/08/12 10:46:13;;;;;;;;;;;;;;;;;;5076462;28;19921;-77
2023/08/12 10:48:38;;;;;;;;;;;;;;;;;;5083528;28;19927;-76
2023/08/12 10:51:04;;;;;;;;;;;;;;;;;;5040606;28;19928;-73
2023/08/12 10:53:31;;;;;;;;;;;;;;;;;;5056545;28;19927;-74
2023/08/12 10:55:57;;;;;;;;;;;;;;;;;;5075137;28;19968;-76
2023/08/12 10:58:23;;;;;;;;;;;;;;;;;;5039245;28;19936;-76
2023/08/12 11:00:49;;;;;;;;;;;;;;;;;;5055365;28;19990;-76
2023/08/12 11:03:15;;;;;;;;;;;;;;;;;;5055360;28;20293;-77
2023/08/12 11:05:41;;;;;;;;;;;;;;;;;;5039302;28;19928;-76
2023/08/12 11:08:07;;;;;;;;;;;;;;;;;;5055826;28;19947;-77
2023/08/12 11:10:33;;;;;;;;;;;;;;;;;;5055111;28;20699;-76
2023/08/12 11:12:59;;;;;;;;;;;;;;;;;;5054854;28;20353;-76
2023/08/12 11:15:25;;;;;;;;;;;;;;;;;;5054644;28;19963;-76
2023/08/12 11:17:51;;;;;;;;;;;;;;;;;;5055593;28;20011;-76
2023/08/12 11:20:17;;;;;;;;;;;;;;;;;;5055081;28;19999;-77
2023/08/12 11:22:43;;;;;;;;;;;;;;;;;;5055510;28;19920;-76
2023/08/12 11:25:09;;;;;;;;;;;;;;;;;;5055450;28;19921;-75
2023/08/12 11:27:35;;;;;;;;;;;;;;;;;;5050815;28;19920;-76
2023/08/12 11:30:01;;;;;;;;;;;;;;;;;;5054832;28;19927;-75
2023/08/12 11:32:27;;;;;;;;;;;;;;;;;;5055081;28;20685;-76
2023/08/12 11:34:53;;;;;;;;;;;;;;;;;;5055613;28;20384;-75
2023/08/12 11:37:19;;;;;;;;;;;;;;;;;;5079137;28;19920;-77
2023/08/12 11:39:45;;;;;;;;;;;;;;;;;;5054240;28;19926;-75
2023/08/12 11:42:11;;;;;;;;;;;;;;;;;;5038223;28;19920;-76
2023/08/12 11:44:37;;;;;;;;;;;;;;;;;;5053886;28;19998;-76
2023/08/12 11:47:03;;;;;;;;;;;;;;;;;;5049846;28;20373;-76
2023/08/12 11:49:29;;;;;;;;;;;;;;;;;;5054425;28;19920;-76
2023/08/12 11:51:55;;;;;;;;;;;;;;;;;;5055315;28;19974;-76
2023/08/12 11:54:21;;;;;;;;;;;;;;;;;;5037638;28;19920;-76
2023/08/12 11:56:47;;;;;;;;;;;;;;;;;;5067001;28;20366;-75
2023/08/12 11:59:13;;;;;;;;;;;;;;;;;;5066903;28;19928;-76
2023/08/12 12:01:39;;;;;;;;;;;;;;;;;;5068853;28;19924;-75
2023/08/12 12:04:05;;;;;;;;;;;;;;;;;;5070708;28;20384;-74
2023/08/12 12:06:31;;;;;;;;;;;;;;;;;;5054796;28;19927;-74
2023/08/12 12:08:58;;;;;;;;;;;;;;;;;;5038152;28;19921;-72
2023/08/12 12:11:23;;;;;;;;;;;;;;;;;;5034143;28;19924;-73
2023/08/12 12:13:50;;;;;;;;;;;;;;;;;;5043124;28;19920;-77
2023/08/12 12:16:16;;;;;;;;;;;;;;;;;;5055342;28;19920;-77
2023/08/12 12:18:41;;;;;;;;;;;;;;;;;;5055310;28;20520;-77
2023/08/12 12:21:07;;;;;;;;;;;;;;;;;;5055500;28;19920;-77
2023/08/12 12:23:35;;;;;;;;;;;;;;;;;;5067992;28;19931;-77
2023/08/12 12:26:01;;;;;;;;;;;;;;;;;;5069201;28;19920;-77
2023/08/12 12:28:27;;;;;;;;;;;;;;;;;;5067576;28;19942;-77
2023/08/12 12:30:53;;;;;;;;;;;;;;;;;;5068659;28;19927;-77
2023/08/12 12:33:19;;;;;;;;;;;;;;;;;;5068867;28;19921;-77
2023/08/12 12:35:45;;;;;;;;;;;;;;;;;;5066434;28;19975;-78
2023/08/12 12:38:11;;;;;;;;;;;;;;;;;;5067236;28;19971;-78
2023/08/12 12:40:38;;;;;;;;;;;;;;;;;;5067364;28;20015;-78
2023/08/12 12:43:04;;;;;;;;;;;;;;;;;;5067322;28;20366;-78
2023/08/12 12:45:30;;;;;;;;;;;;;;;;;;5070633;28;19970;-78
2023/08/12 12:47:56;;;;;;;;;;;;;;;;;;5038391;28;20285;-77
2023/08/12 12:50:22;;;;;;;;;;;;;;;;;;5038424;28;19927;-77
2023/08/12 12:52:48;;;;;;;;;;;;;;;;;;5040891;28;20692;-79
2023/08/12 12:55:14;;;;;;;;;;;;;;;;;;5068375;28;20388;-78
2023/08/12 12:57:40;;;;;;;;;;;;;;;;;;5067071;28;19927;-79
2023/08/12 13:00:09;;;;;;;;;;;;;;;;;;5068779;28;19921;-79
2023/08/12 13:02:35;;;;;;;;;;;;;;;;;;5035038;28;19970;-78
2023/08/12 13:05:01;;;;;;;;;;;;;;;;;;5039550;28;19921;-79
2023/08/12 13:07:26;;;;;;;;;;;;;;;;;;5076442;28;19962;-78
2023/08/12 13:09:52;;;;;;;;;;;;;;;;;;5066880;28;20362;-78
2023/08/12 13:12:18;;;;;;;;;;;;;;;;;;5081144;28;20316;-78
2023/08/12 13:14:44;;;;;;;;;;;;;;;;;;5053443;28;19924;-78
2023/08/12 13:17:10;;;;;;;;;;;;;;;;;;5054672;28;20391;-78
2023/08/12 13:19:36;;;;;;;;;;;;;;;;;;5053213;28;20331;-78
2023/08/12 13:22:02;;;;;;;;;;;;;;;;;;5045712;28;20042;-78
2023/08/12 13:24:28;;;;;;;;;;;;;;;;;;5037632;28;20374;-78
2023/08/12 13:26:54;;;;;;;;;;;;;;;;;;5069616;28;19935;-79
2023/08/12 13:29:20;;;;;;;;;;;;;;;;;;5053793;28;20038;-78
2023/08/12 13:31:46;;;;;;;;;;;;;;;;;;5071901;28;19928;-78
2023/08/12 13:34:12;;;;;;;;;;;;;;;;;;5054667;28;19920;-78
2023/08/12 13:36:38;;;;;;;;;;;;;;;;;;5070987;28;19920;-79
2023/08/12 13:39:05;;;;;;;;;;;;;;;;;;5054223;28;19975;-79
2023/08/12 13:41:31;;;;;;;;;;;;;;;;;;5084736;28;19928;-79
2023/08/12 13:43:57;;;;;;;;;;;;;;;;;;5051246;28;19920;-78
2023/08/12 13:46:23;;;;;;;;;;;;;;;;;;5035489;28;19924;-78
2023/08/12 13:48:49;;;;;;;;;;;;;;;;;;5058320;28;19966;-77
2023/08/12 13:51:15;;;;;;;;;;;;;;;;;;5067527;28;19927;-78
2023/08/12 13:53:41;;;;;;;;;;;;;;;;;;5055731;28;19943;-77
2023/08/12 13:56:07;;;;;;;;;;;;;;;;;;5054964;28;19920;-75
2023/08/12 13:58:33;;;;;;;;;;;;;;;;;;5060753;28;19920;-78
2023/08/12 14:00:59;;;;;;;;;;;;;;;;;;5048088;28;19993;-78
2023/08/12 14:03:24;;;;;;;;;;;;;;;;;;5050458;28;19923;-77
2023/08/12 14:05:50;;;;;;;;;;;;;;;;;;5052082;28;20008;-77
2023/08/12 14:08:16;;;;;;;;;;;;;;;;;;5077923;28;19923;-77
2023/08/12 14:10:42;;;;;;;;;;;;;;;;;;5076759;28;19965;-77
2023/08/12 14:13:08;;;;;;;;;;;;;;;;;;5067541;28;19930;-78
2023/08/12 14:15:34;;;;;;;;;;;;;;;;;;5077257;28;20278;-77
2023/08/12 14:18:00;;;;;;;;;;;;;;;;;;5076879;28;19920;-77
2023/08/12 14:20:26;;;;;;;;;;;;;;;;;;5067122;28;19973;-75
2023/08/12 14:22:52;;;;;;;;;;;;;;;;;;5039837;28;20401;-77
2023/08/12 14:25:18;;;;;;;;;;;;;;;;;;5069832;28;19920;-76
2023/08/12 14:27:44;;;;;;;;;;;;;;;;;;5076857;28;19927;-77
2023/08/12 14:30:10;;;;;;;;;;;;;;;;;;5076237;28;19965;-76
2023/08/12 14:32:36;;;;;;;;;;;;;;;;;;5076559;28;19966;-77
2023/08/12 14:35:02;;;;;;;;;;;;;;;;;;5076488;28;19919;-74
2023/08/12 14:37:28;;;;;;;;;;;;;;;;;;5076052;28;20326;-74
2023/08/12 14:39:54;;;;;;;;;;;;;;;;;;5066495;28;19924;-74
2023/08/12 14:42:20;;;;;;;;;;;;;;;;;;5091166;28;19924;-77
2023/08/12 14:44:46;;;;;;;;;;;;;;;;;;5042913;28;19999;-76
2023/08/12 14:47:12;;;;;;;;;;;;;;;;;;5070465;28;19920;-72
2023/08/12 14:49:38;;;;;;;;;;;;;;;;;;5086876;28;19920;-74
2023/08/12 14:52:04;;;;;;;;;;;;;;;;;;5075623;28;19928;-70
2023/08/12 14:54:30;;;;;;;;;;;;;;;;;;5091111;28;19982;-72
2023/08/12 14:56:56;;;;;;;;;;;;;;;;;;5093419;28;19924;-73
2023/08/12 14:59:21;;;;;;;;;;;;;;;;;;5076263;28;20003;-74
2023/08/12 15:01:47;;;;;;;;;;;;;;;;;;5076162;28;19923;-74
2023/08/12 15:04:13;;;;;;;;;;;;;;;;;;5076516;28;20393;-73
2023/08/12 15:06:39;;;;;;;;;;;;;;;;;;5068838;28;19947;-76
2023/08/12 15:09:06;;;;;;;;;;;;;;;;;;5075634;28;20043;-75
2023/08/12 15:11:32;;;;;;;;;;;;;;;;;;5059748;28;20391;-75
2023/08/12 15:13:58;;;;;;;;;;;;;;;;;;5074074;28;19924;-73
2023/08/12 15:16:23;;;;;;;;;;;;;;;;;;5067873;28;19924;-74
2023/08/12 15:18:49;;;;;;;;;;;;;;;;;;5093747;28;19972;-70
2023/08/12 15:21:16;;;;;;;;;;;;;;;;;;5094306;28;19920;-71
2023/08/12 15:23:42;;;;;;;;;;;;;;;;;;5093850;28;19964;-71
2023/08/12 15:26:08;;;;;;;;;;;;;;;;;;5093660;28;19919;-71
2023/08/12 15:28:34;;;;;;;;;;;;;;;;;;5054829;28;19931;-71
2023/08/12 15:31:00;;;;;;;;;;;;;;;;;;5082356;28;19920;-70
2023/08/12 15:33:26;;;;;;;;;;;;;;;;;;5091880;28;19926;-70
2023/08/12 15:35:52;;;;;;;;;;;;;;;;;;5093850;28;19963;-69
2023/08/12 15:38:17;;;;;;;;;;;;;;;;;;5093948;28;19920;-73
2023/08/12 15:40:43;;;;;;;;;;;;;;;;;;5093690;28;19920;-71
2023/08/12 15:43:09;;;;;;;;;;;;;;;;;;5074318;28;19926;-73
2023/08/12 15:45:37;;;;;;;;;;;;;;;;;;5081736;28;19967;-71
2023/08/12 15:48:03;;;;;;;;;;;;;;;;;;5093385;28;19920;-72
2023/08/12 15:50:29;;;;;;;;;;;;;;;;;;5071395;28;19942;-71
2023/08/12 15:52:55;;;;;;;;;;;;;;;;;;5062522;28;20010;-71